createdAt,value
2023-03-07T05:01:49.425Z,83.86
2023-03-07T05:05:52.977Z,83.91
2023-03-07T05:09:55.815Z,83.68
2023-03-07T05:13:58.672Z,83.35
2023-03-07T05:18:03.939Z,82.90
2023-03-07T05:22:07.532Z,82.89
2023-03-07T05:26:10.465Z,82.64
2023-03-07T05:30:13.715Z,82.82
2023-03-07T05:34:17.732Z,83.43
2023-03-07T05:38:20.525Z,83.17
2023-03-07T05:42:23.229Z,82.85
2023-03-07T05:46:26.048Z,82.57
2023-03-07T05:50:30.609Z,82.53
2023-03-07T05:54:33.660Z,83.06
2023-03-07T05:58:36.372Z,83.12
2023-03-07T06:02:39.016Z,83.09
2023-03-07T06:06:43.054Z,82.87
2023-03-07T06:10:50.414Z,82.66
2023-03-07T06:14:53.301Z,83.59
2023-03-07T06:18:55.943Z,83.69
2023-03-07T06:23:01.199Z,83.88
2023-03-07T06:27:03.816Z,83.83
2023-03-07T06:31:09.971Z,84.25
2023-03-07T06:35:12.725Z,84.24
2023-03-07T06:39:20.988Z,84.20
2023-03-07T06:43:25.577Z,84.11
2023-03-07T06:47:28.615Z,84.44
2023-03-07T06:51:31.490Z,84.38
2023-03-07T06:55:41.937Z,83.74
2023-03-07T06:59:47.195Z,83.99
2023-03-07T07:03:50.725Z,83.83
2023-03-07T07:07:54.266Z,83.77
2023-03-07T07:11:58.439Z,83.82
2023-03-07T07:16:05.246Z,83.04
2023-03-07T07:20:11.242Z,83.64
2023-03-07T07:24:15.949Z,83.00
2023-03-07T07:28:20.273Z,83.14
2023-03-07T07:32:23.211Z,82.98
2023-03-07T07:36:26.268Z,82.58
2023-03-07T07:40:29.042Z,82.45
2023-03-07T07:44:33.422Z,83.00
2023-03-07T07:48:40.967Z,82.69
2023-03-07T07:52:43.662Z,82.66
2023-03-07T07:56:46.892Z,82.68
2023-03-07T08:00:51.416Z,82.58
2023-03-07T08:04:53.913Z,82.54
2023-03-07T08:08:56.803Z,81.77
2023-03-07T08:12:59.313Z,81.92
2023-03-07T08:17:03.535Z,81.69
2023-03-07T08:21:06.324Z,81.97
2023-03-07T08:25:09.549Z,81.90
2023-03-07T08:29:12.216Z,81.50
2023-03-07T08:33:16.231Z,80.59
2023-03-07T08:37:18.802Z,81.06
2023-03-07T08:41:22.911Z,80.67
2023-03-07T08:45:25.761Z,80.39
2023-03-07T08:49:29.608Z,80.66
2023-03-07T08:53:32.211Z,79.72
2023-03-07T08:57:34.719Z,80.68
2023-03-07T09:01:37.688Z,80.32
2023-03-07T09:05:42.603Z,80.47
2023-03-07T09:09:45.147Z,80.17
2023-03-07T09:13:52.369Z,80.15
2023-03-07T09:17:55.716Z,80.62
2023-03-07T09:21:59.547Z,80.22
2023-03-07T09:26:03.341Z,79.81
2023-03-07T09:30:07.176Z,80.02
2023-03-07T09:34:09.883Z,80.09
2023-03-07T09:38:13.754Z,80.19
2023-03-07T09:42:23.104Z,80.64
2023-03-07T09:46:34.750Z,80.17
2023-03-07T09:50:45.939Z,79.82
2023-03-07T09:54:56.911Z,79.89
2023-03-07T09:59:20.470Z,79.95
2023-03-07T10:03:33.870Z,80.57
2023-03-07T10:07:37.157Z,79.88
2023-03-07T10:12:04.935Z,80.12
2023-03-07T10:16:20.204Z,79.25
2023-03-07T10:20:26.211Z,78.62
2023-03-07T10:24:44.641Z,79.03
2023-03-07T10:28:49.749Z,79.25
2023-03-07T10:32:58.056Z,78.73
2023-03-07T10:37:09.176Z,79.78
2023-03-07T10:41:16.243Z,80.28
2023-03-07T10:45:20.769Z,81.67
2023-03-07T10:49:28.247Z,82.50
2023-03-07T10:53:35.796Z,83.32
2023-03-07T10:57:38.356Z,83.73
2023-03-07T11:01:57.816Z,84.64
2023-03-07T11:06:00.820Z,85.00
2023-03-07T11:10:28.391Z,85.96
2023-03-07T15:11:24.054Z,81.83
2023-03-07T15:15:32.906Z,81.98
2023-03-07T15:19:39.949Z,79.97
2023-03-07T15:23:42.584Z,79.26
2023-03-07T15:27:48.070Z,79.55
2023-03-07T15:31:57.373Z,79.21
2023-03-07T15:36:27.578Z,79.28
2023-03-07T15:40:32.053Z,79.22
2023-03-07T15:44:37.969Z,80.43
2023-03-07T15:48:48.193Z,80.59
2023-03-07T15:52:53.008Z,81.39
2023-03-07T15:56:57.364Z,81.90
2023-03-07T16:01:16.123Z,81.93
2023-03-07T16:05:38.587Z,81.84
2023-03-07T16:09:41.077Z,81.96
2023-03-07T16:13:45.080Z,82.33
2023-03-07T16:17:53.104Z,82.21
2023-03-07T16:21:55.636Z,82.49
2023-03-07T16:25:59.309Z,82.33
2023-03-07T16:30:02.121Z,82.78
2023-03-07T16:34:07.319Z,84.01
2023-03-07T16:38:10.497Z,84.33
2023-03-07T16:42:20.488Z,84.78
2023-03-07T16:46:24.809Z,85.27
2023-03-07T16:50:31.582Z,86.17
2023-03-07T16:54:34.512Z,86.19
2023-03-07T16:58:37.169Z,86.42
2023-03-07T17:02:39.720Z,86.30
2023-03-07T17:06:43.841Z,86.54
2023-03-07T17:10:46.476Z,87.30
2023-03-07T17:14:49.163Z,87.57
2023-03-07T17:18:51.724Z,87.65
2023-03-07T17:22:55.704Z,88.14
2023-03-07T17:27:00.348Z,87.88
2023-03-07T17:31:02.878Z,88.30
2023-03-07T17:35:08.049Z,88.28
2023-03-07T17:39:12.834Z,88.29
2023-03-07T17:43:15.300Z,88.44
2023-03-07T17:47:18.103Z,88.73
2023-03-07T17:51:20.640Z,88.50
2023-03-07T17:55:25.915Z,88.59
2023-03-07T17:59:28.395Z,88.32
2023-03-07T18:03:30.888Z,88.13
2023-03-07T18:07:33.413Z,87.79
2023-03-07T18:11:37.294Z,87.45
2023-03-07T18:15:39.910Z,86.79
2023-03-07T18:19:42.446Z,86.72
2023-03-07T18:23:44.920Z,87.17
2023-03-07T18:27:49.872Z,87.96
2023-03-07T18:31:52.737Z,88.03
2023-03-07T18:35:55.311Z,88.30
2023-03-07T18:39:57.868Z,88.62
2023-03-07T18:44:02.039Z,88.89
2023-03-07T18:48:04.744Z,89.30
2023-03-07T18:52:07.341Z,89.30
2023-03-07T18:56:12.197Z,89.34
2023-03-07T19:00:16.878Z,89.48
2023-03-07T19:04:19.424Z,89.77
2023-03-07T19:08:21.922Z,89.89
2023-03-07T19:12:24.443Z,89.71
2023-03-07T19:16:29.013Z,89.54
2023-03-07T19:20:31.635Z,89.30
2023-03-07T19:24:34.534Z,88.84
2023-03-07T19:28:37.276Z,89.17
2023-03-07T19:32:41.264Z,89.15
2023-03-07T19:36:43.907Z,89.57
2023-03-07T19:40:48.692Z,89.51
2023-03-07T19:44:51.288Z,89.71
2023-03-07T19:48:55.178Z,89.80
2023-03-07T19:52:59.065Z,89.79
2023-03-07T19:57:01.621Z,90.15
2023-03-07T20:01:07.852Z,90.12
2023-03-07T20:05:11.848Z,90.49
2023-03-07T20:09:14.512Z,90.39
2023-03-07T20:13:17.028Z,90.21
2023-03-07T20:17:19.570Z,90.09
2023-03-07T20:21:27.830Z,89.64
2023-03-07T20:25:32.034Z,89.39
2023-03-07T20:29:34.548Z,89.14
2023-03-07T20:33:37.878Z,88.85
2023-03-07T20:37:41.606Z,88.70
2023-03-07T20:41:45.063Z,88.32
2023-03-07T20:45:47.621Z,88.71
2023-03-07T20:49:50.141Z,88.75
2023-03-07T20:53:57.065Z,89.21
2023-03-07T20:57:59.608Z,89.43
2023-03-07T21:02:02.185Z,89.17
2023-03-07T21:06:06.116Z,88.95
2023-03-07T21:10:11.772Z,89.00
2023-03-07T21:14:15.027Z,89.42
2023-03-07T21:18:17.583Z,89.75
2023-03-07T21:22:20.142Z,89.79
2023-03-07T21:26:25.990Z,89.52
2023-03-07T21:30:28.506Z,89.07
2023-03-07T21:34:30.997Z,88.72
2023-03-07T21:38:34.709Z,88.92
2023-03-07T21:42:38.545Z,88.69
2023-03-07T21:46:41.035Z,88.54
2023-03-07T21:50:44.014Z,88.31
2023-03-07T21:54:46.557Z,88.60
2023-03-07T21:58:51.056Z,89.23
